createdAt,value
2019-02-28T00:04:14.767Z,99776.62
2019-02-28T00:06:45.494Z,99758.78
2019-02-28T00:09:21.059Z,99763.86
2019-02-28T00:11:51.523Z,99771.69
2019-02-28T00:14:21.634Z,99777.46
2019-02-28T00:16:51.748Z,99782.86
2019-02-28T00:19:24.010Z,99768.81
2019-02-28T00:21:59.459Z,99767.96
2019-02-28T00:24:30.049Z,99761.23
2019-02-28T00:27:22.024Z,99755.31
2019-02-28T00:32:47.301Z,99755.42
2019-02-28T00:35:17.394Z,99752.91
2019-02-28T00:37:47.532Z,99754.83
2019-02-28T00:40:17.671Z,99753.23
2019-02-28T00:42:48.064Z,99749.59
2019-02-28T00:45:38.673Z,99744.04
2019-02-28T00:48:08.776Z,99745.11
2019-02-28T00:50:38.934Z,99736.95
2019-02-28T00:53:09.052Z,99740.52
2019-02-28T00:55:58.244Z,99738.55
2019-02-28T00:58:28.984Z,99731.23
2019-02-28T01:01:19.356Z,99739.73
2019-02-28T01:03:49.486Z,99743.84
2019-02-28T01:06:19.639Z,99734.50
2019-02-28T01:08:49.740Z,99735.67
2019-02-28T01:11:19.831Z,99736.64
2019-02-28T01:13:49.946Z,99727.84
2019-02-28T01:16:20.145Z,99728.92
2019-02-28T01:18:50.205Z,99733.97
2019-02-28T01:21:23.876Z,99726.37
2019-02-28T01:24:00.628Z,99728.20
2019-02-28T01:29:45.775Z,99715.36
2019-02-28T01:32:17.491Z,99709.17
2019-02-28T01:34:47.597Z,99701.16
2019-02-28T01:37:20.904Z,99701.45
2019-02-28T01:39:55.140Z,99697.48
2019-02-28T01:42:25.324Z,99689.43
2019-02-28T01:44:55.414Z,99693.76
2019-02-28T01:47:25.690Z,99679.19
2019-02-28T01:49:57.765Z,99681.92
2019-02-28T01:52:37.208Z,99683.25
2019-02-28T01:55:07.963Z,99683.86
2019-02-28T01:57:42.360Z,99681.09
2019-02-28T02:00:17.056Z,99680.23
2019-02-28T02:02:47.473Z,99680.66
2019-02-28T02:05:18.120Z,99674.42
2019-02-28T02:07:48.627Z,99663.01
2019-02-28T02:10:39.496Z,99663.64
2019-02-28T02:13:09.658Z,99651.17
2019-02-28T02:15:45.123Z,99648.15
2019-02-28T02:18:15.218Z,99648.73
2019-02-28T02:20:45.335Z,99648.20
2019-02-28T02:23:18.193Z,99654.38
2019-02-28T02:25:52.763Z,99636.41
2019-02-28T02:28:26.765Z,99633.27
2019-02-28T02:31:13.806Z,99638.92
2019-02-28T02:36:28.546Z,99640.30
2019-02-28T02:38:58.642Z,99634.44
2019-02-28T02:41:33.451Z,99644.52
2019-02-28T02:44:13.430Z,99641.00
2019-02-28T02:47:02.561Z,99642.64
2019-02-28T02:49:32.668Z,99633.26
2019-02-28T02:52:02.779Z,99631.23
2019-02-28T02:54:32.855Z,99638.17
2019-02-28T02:57:04.584Z,99636.89
2019-02-28T02:59:38.952Z,99636.58
2019-02-28T03:02:28.816Z,99632.31
2019-02-28T03:05:03.361Z,99644.03
2019-02-28T03:07:33.567Z,99638.59
2019-02-28T03:10:03.678Z,99642.06
2019-02-28T03:12:35.411Z,99633.21
2019-02-28T03:15:27.298Z,99631.82
2019-02-28T03:18:03.740Z,99629.27
2019-02-28T03:20:33.840Z,99624.09
2019-02-28T03:23:03.968Z,99628.42
2019-02-28T03:25:34.081Z,99625.97
2019-02-28T03:28:04.166Z,99618.23
2019-02-28T03:30:34.284Z,99616.91
2019-02-28T03:33:04.377Z,99615.52
2019-02-28T03:35:43.099Z,99624.30
2019-02-28T03:41:33.733Z,99625.95
2019-02-28T03:44:05.448Z,99620.72
2019-02-28T03:46:54.593Z,99618.44
2019-02-28T03:49:24.671Z,99621.41
2019-02-28T03:51:54.781Z,99619.20
2019-02-28T03:57:13.968Z,99614.11
2019-02-28T03:59:44.207Z,99615.66
2019-02-28T04:02:21.058Z,99611.76
2019-02-28T04:05:05.233Z,99609.37
2019-02-28T04:07:35.347Z,99619.68
2019-02-28T04:10:25.938Z,99615.78
2019-02-28T04:12:56.056Z,99613.88
2019-02-28T04:15:26.211Z,99619.98
2019-02-28T04:17:56.305Z,99612.84
2019-02-28T04:20:26.415Z,99609.03
2019-02-28T04:23:15.493Z,99608.10
2019-02-28T04:25:45.765Z,99610.87
2019-02-28T04:28:18.734Z,99608.95
2019-02-28T04:31:06.934Z,99617.70
2019-02-28T04:33:39.067Z,99614.56
2019-02-28T04:36:28.025Z,99607.42
2019-02-28T04:38:58.192Z,99613.22
2019-02-28T04:41:32.538Z,99615.69
2019-02-28T04:44:06.053Z,99602.38
2019-02-28T04:46:37.032Z,99606.36
2019-02-28T04:49:21.751Z,99604.41
2019-02-28T04:51:50.723Z,99603.45
2019-02-28T04:54:20.835Z,99611.34
2019-02-28T04:56:50.932Z,99605.68
2019-02-28T04:59:22.937Z,99613.16
2019-02-28T05:07:33.193Z,99607.97
2019-02-28T05:10:03.398Z,99604.89
2019-02-28T05:12:45.668Z,99590.63
2019-02-28T05:15:15.951Z,99603.98
2019-02-28T05:17:55.860Z,99597.59
2019-02-28T05:20:59.120Z,99602.91
2019-02-28T05:23:29.216Z,99598.55
2019-02-28T05:25:59.339Z,99599.23
2019-02-28T05:28:29.469Z,99597.55
2019-02-28T05:30:59.663Z,99595.38
2019-02-28T05:33:29.821Z,99599.27
2019-02-28T05:36:01.864Z,99589.84
2019-02-28T05:38:53.590Z,99599.47
2019-02-28T05:41:55.051Z,99595.17
2019-02-28T05:44:25.198Z,99591.00
2019-02-28T05:46:57.965Z,99591.78
2019-02-28T05:49:32.766Z,99593.86
2019-02-28T05:52:02.966Z,99589.91
2019-02-28T05:54:33.265Z,99592.94
2019-02-28T05:57:04.652Z,99600.48
2019-02-28T06:02:43.480Z,99598.19
2019-02-28T06:05:13.710Z,99588.40
2019-02-28T06:08:03.610Z,99597.72
2019-02-28T06:10:43.068Z,99600.75
2019-02-28T06:13:26.923Z,99596.86
2019-02-28T06:16:04.499Z,99591.10
2019-02-28T06:18:34.621Z,99595.20
2019-02-28T06:21:04.778Z,99586.63
2019-02-28T06:24:02.189Z,99596.22
2019-02-28T06:26:35.467Z,99590.05
2019-02-28T06:32:16.376Z,99591.14
2019-02-28T06:34:46.919Z,99598.38
2019-02-28T06:37:18.697Z,99593.77
2019-02-28T06:39:50.884Z,99598.03
2019-02-28T06:42:21.054Z,99593.93
2019-02-28T06:44:51.234Z,99594.99
2019-02-28T06:47:21.353Z,99592.87
2019-02-28T06:49:51.473Z,99597.71
2019-02-28T06:52:22.289Z,99591.53
2019-02-28T07:00:44.171Z,99602.72
2019-02-28T07:03:20.300Z,99606.40
2019-02-28T07:05:53.243Z,99621.91
2019-02-28T07:11:14.524Z,99621.01
2019-02-28T07:14:03.647Z,99624.41
2019-02-28T07:16:37.101Z,99615.72
2019-02-28T07:19:21.031Z,99620.89
2019-02-28T07:21:51.351Z,99631.67
2019-02-28T07:24:21.613Z,99627.75
2019-02-28T07:26:53.020Z,99631.22
2019-02-28T07:29:42.643Z,99633.89
2019-02-28T07:32:16.763Z,99645.18
2019-02-28T07:34:47.041Z,99648.70
2019-02-28T07:37:18.883Z,99645.67
2019-02-28T07:40:15.578Z,99649.29
2019-02-28T07:42:46.794Z,99648.37
2019-02-28T07:45:17.121Z,99645.33
2019-02-28T07:47:51.755Z,99654.34
2019-02-28T07:50:24.752Z,99648.26
2019-02-28T07:52:54.865Z,99649.48
2019-02-28T07:55:27.229Z,99661.79
2019-02-28T07:58:02.119Z,99657.30
2019-02-28T08:00:32.386Z,99648.97
2019-02-28T08:03:02.502Z,99659.09
2019-02-28T08:05:32.584Z,99670.69
2019-02-28T08:08:02.709Z,99673.70
2019-02-28T08:10:32.847Z,99667.95
2019-02-28T08:13:03.298Z,99672.80
2019-02-28T08:15:40.099Z,99658.86
2019-02-28T08:18:10.330Z,99668.72
2019-02-28T08:20:40.731Z,99673.36
2019-02-28T08:23:12.708Z,99649.15
2019-02-28T08:25:52.842Z,99659.53
2019-02-28T08:28:25.171Z,99678.52
2019-02-28T08:30:56.057Z,99671.69
2019-02-28T08:33:42.916Z,99674.52
2019-02-28T08:36:14.650Z,99678.59
2019-02-28T08:38:44.748Z,99677.47
2019-02-28T08:41:14.861Z,99688.61
2019-02-28T08:43:47.925Z,99677.41
2019-02-28T08:46:35.839Z,99671.55
2019-02-28T08:52:21.039Z,99679.63
2019-02-28T08:54:51.156Z,99678.92
2019-02-28T08:57:21.959Z,99677.95
2019-02-28T09:00:17.625Z,99679.73
2019-02-28T09:02:52.461Z,99683.27
2019-02-28T09:05:38.851Z,99682.22
2019-02-28T09:08:09.031Z,99689.49
2019-02-28T09:10:39.165Z,99683.56
2019-02-28T09:13:09.289Z,99690.34
2019-02-28T09:15:39.399Z,99691.49
2019-02-28T09:18:09.498Z,99690.30
2019-02-28T09:20:41.435Z,99694.80
2019-02-28T09:23:24.396Z,99699.51
2019-02-28T09:26:15.002Z,99705.89
2019-02-28T09:28:47.667Z,99719.31
2019-02-28T09:31:38.902Z,99716.46
2019-02-28T09:34:21.560Z,99722.51
2019-02-28T09:36:55.442Z,99709.19
2019-02-28T09:39:42.552Z,99708.40
2019-02-28T09:42:15.744Z,99709.53
2019-02-28T09:47:45.249Z,99720.77
2019-02-28T09:50:19.358Z,99709.34
2019-02-28T09:53:08.212Z,99716.39
2019-02-28T09:55:39.831Z,99726.23
2019-02-28T09:58:30.064Z,99726.31
2019-02-28T10:01:06.592Z,99715.64
2019-02-28T10:03:36.720Z,99725.23
2019-02-28T10:06:06.833Z,99729.02
2019-02-28T10:08:38.007Z,99718.72
2019-02-28T10:11:31.226Z,99730.62
2019-02-28T10:14:05.289Z,99730.30
2019-02-28T10:16:35.399Z,99730.44
2019-02-28T10:19:05.592Z,99730.44
2019-02-28T10:21:39.568Z,99740.38
2019-02-28T10:24:28.536Z,99735.61
2019-02-28T10:27:05.654Z,99735.17
2019-02-28T10:29:38.430Z,99742.94
2019-02-28T10:32:13.323Z,99747.32
2019-02-28T10:34:43.491Z,99731.28
2019-02-28T10:37:13.714Z,99749.03
2019-02-28T10:39:44.001Z,99756.87
2019-02-28T10:42:14.227Z,99749.41
2019-02-28T10:44:44.426Z,99739.54
2019-02-28T10:47:14.639Z,99754.02
2019-02-28T10:49:44.827Z,99756.97
2019-02-28T10:52:14.999Z,99749.55
2019-02-28T10:54:48.396Z,99757.73
2019-02-28T10:57:26.437Z,99769.23
2019-02-28T10:59:58.168Z,99764.05
2019-02-28T11:03:08.091Z,99773.35
2019-02-28T11:05:58.700Z,99774.09
2019-02-28T11:08:28.991Z,99775.45
2019-02-28T11:14:05.684Z,99777.61
2019-02-28T11:16:36.158Z,99783.45
2019-02-28T11:19:31.970Z,99784.72
2019-02-28T11:22:04.902Z,99777.36
2019-02-28T11:27:46.960Z,99788.98
2019-02-28T11:30:38.014Z,99789.30
2019-02-28T11:36:10.216Z,99794.56
2019-02-28T11:38:40.300Z,99797.13
2019-02-28T11:41:10.396Z,99804.23
2019-02-28T11:43:40.556Z,99813.17
2019-02-28T11:46:29.819Z,99803.86
2019-02-28T11:49:00.067Z,99816.80
2019-02-28T11:51:30.424Z,99806.56
2019-02-28T11:54:00.615Z,99810.80
2019-02-28T11:56:30.942Z,99822.29
2019-02-28T11:59:01.141Z,99820.32
2019-02-28T12:01:31.423Z,99821.44
2019-02-28T12:04:01.622Z,99826.16
2019-02-28T12:06:33.330Z,99822.50
2019-02-28T12:12:00.409Z,99818.45
2019-02-28T12:14:30.658Z,99813.47
2019-02-28T12:17:00.895Z,99820.56
2019-02-28T12:19:31.075Z,99802.17
2019-02-28T12:22:01.301Z,99825.44
2019-02-28T12:24:32.316Z,99829.34
2019-02-28T12:27:24.423Z,99840.30
2019-02-28T12:30:00.144Z,99831.41
2019-02-28T12:32:30.406Z,99838.11
2019-02-28T12:35:02.398Z,99838.59
2019-02-28T12:37:37.796Z,99843.84
2019-02-28T12:40:10.343Z,99846.88
2019-02-28T12:42:41.324Z,99842.74
2019-02-28T12:45:14.728Z,99825.91
2019-02-28T12:47:45.904Z,99849.45
2019-02-28T12:50:29.409Z,99840.67
2019-02-28T12:53:10.792Z,99847.98
2019-02-28T12:55:40.999Z,99861.42
2019-02-28T12:58:11.202Z,99862.52
2019-02-28T13:00:41.392Z,99870.67
2019-02-28T13:06:02.536Z,99883.59
2019-02-28T13:08:32.701Z,99885.13
2019-02-28T13:11:04.498Z,99881.77
2019-02-28T13:13:53.899Z,99879.82
2019-02-28T13:16:24.109Z,99882.77
2019-02-28T13:19:16.345Z,99887.76
2019-02-28T13:28:02.657Z,99906.67
2019-02-28T13:30:34.049Z,99892.36
2019-02-28T13:38:49.330Z,99920.20
2019-02-28T13:50:49.204Z,99931.92
2019-02-28T13:53:46.066Z,99931.51
2019-02-28T13:56:21.749Z,99937.48
2019-02-28T13:58:53.638Z,99950.88
2019-02-28T14:02:05.761Z,99958.25
2019-02-28T14:07:37.986Z,99950.59
2019-02-28T14:10:15.146Z,99940.20
2019-02-28T14:12:48.194Z,99941.61
2019-02-28T14:15:21.392Z,99934.38
2019-02-28T14:17:53.292Z,99953.23
2019-02-28T14:20:43.144Z,99956.04
2019-02-28T14:26:11.399Z,99955.56
2019-02-28T14:28:47.365Z,99960.33
2019-02-28T14:31:23.849Z,99961.20
2019-02-28T14:34:44.843Z,99957.34
2019-02-28T14:40:26.726Z,99972.77
2019-02-28T14:42:58.460Z,99974.47
2019-02-28T14:45:28.618Z,99986.41
2019-02-28T14:48:04.049Z,99976.30
2019-02-28T14:50:58.956Z,99977.38
2019-02-28T14:53:29.279Z,99983.33
2019-02-28T14:56:18.632Z,99982.61
2019-02-28T15:01:31.908Z,99977.92
2019-02-28T15:04:22.810Z,99973.95
2019-02-28T15:07:11.927Z,100007.33
2019-02-28T15:09:42.038Z,99984.91
2019-02-28T15:12:31.255Z,99996.41
2019-02-28T15:15:01.738Z,99994.33
2019-02-28T15:17:32.247Z,99989.65
2019-02-28T15:20:16.023Z,100001.45
2019-02-28T15:25:39.139Z,100004.88
2019-02-28T15:28:28.422Z,100001.44
2019-02-28T15:30:58.639Z,100012.89
2019-02-28T15:33:30.582Z,100016.02
2019-02-28T15:36:14.249Z,100015.31
2019-02-28T15:38:44.750Z,100019.55
2019-02-28T15:41:35.417Z,100023.67
2019-02-28T15:44:05.766Z,100028.32
2019-02-28T15:46:48.321Z,100028.95
2019-02-28T15:49:18.446Z,100024.05
2019-02-28T15:51:48.661Z,100035.49
2019-02-28T15:54:21.661Z,100055.36
2019-02-28T15:56:51.782Z,100050.45
2019-02-28T15:59:22.561Z,100059.48
2019-02-28T16:01:52.702Z,100062.12
2019-02-28T16:04:23.556Z,100072.86
2019-02-28T16:07:10.485Z,100074.13
2019-02-28T16:09:40.574Z,100072.57
2019-02-28T16:14:54.276Z,100088.27
2019-02-28T16:17:24.486Z,100082.78
2019-02-28T16:23:04.420Z,100087.20
2019-02-28T16:28:33.783Z,100096.16
2019-02-28T16:31:06.528Z,100092.67
2019-02-28T16:33:45.248Z,100097.36
2019-02-28T16:36:15.981Z,100099.85
2019-02-28T16:38:46.234Z,100109.17
2019-02-28T16:41:17.493Z,100106.05
2019-02-28T16:43:47.640Z,100109.66
2019-02-28T16:46:17.742Z,100111.95
2019-02-28T16:48:47.826Z,100119.59
2019-02-28T16:51:17.969Z,100117.88
2019-02-28T16:53:48.865Z,100125.80
2019-02-28T16:56:25.499Z,100135.72
2019-02-28T16:58:57.299Z,100143.41
2019-02-28T17:01:46.768Z,100137.22
2019-02-28T17:04:18.026Z,100141.02
2019-02-28T17:07:09.441Z,100138.16
2019-02-28T17:12:54.924Z,100147.50
2019-02-28T17:15:36.204Z,100142.55
2019-02-28T17:18:12.946Z,100153.94
2019-02-28T17:20:42.795Z,100151.97
2019-02-28T17:23:12.988Z,100157.17
2019-02-28T17:25:43.089Z,100153.36
2019-02-28T17:28:35.546Z,100151.45
2019-02-28T17:31:29.158Z,100153.73
2019-02-28T17:33:59.259Z,100152.02
2019-02-28T17:36:32.112Z,100142.67
2019-02-28T17:39:05.053Z,100145.16
2019-02-28T17:41:37.346Z,100144.77
2019-02-28T17:44:30.633Z,100099.10
2019-02-28T17:47:03.271Z,100146.88
2019-02-28T17:50:07.562Z,100151.73
2019-02-28T17:52:44.543Z,100159.45
2019-02-28T17:55:39.201Z,100162.41
2019-02-28T17:58:47.433Z,100177.84
2019-02-28T18:01:43.797Z,100170.88
2019-02-28T18:04:52.150Z,100186.02
2019-02-28T18:07:53.692Z,100184.77
2019-02-28T18:11:01.881Z,100186.93
2019-02-28T18:14:00.038Z,100188.08
2019-02-28T18:17:08.237Z,100190.06
2019-02-28T18:19:56.723Z,100188.65
2019-02-28T18:23:04.980Z,100193.98
2019-02-28T18:25:48.724Z,100191.25
2019-02-28T18:29:01.816Z,100199.95
2019-02-28T18:31:31.714Z,100203.18
2019-02-28T18:34:04.519Z,100203.89
2019-02-28T18:36:34.844Z,100212.74
2019-02-28T18:39:25.424Z,100209.13
2019-02-28T18:42:01.080Z,100208.95
2019-02-28T18:44:31.278Z,100215.95
2019-02-28T18:47:02.924Z,100217.45
2019-02-28T18:49:33.291Z,100223.56
2019-02-28T18:52:08.185Z,100230.27
2019-02-28T18:54:39.362Z,100225.08
2019-02-28T18:57:15.222Z,100229.58
2019-02-28T18:59:45.487Z,100235.11
2019-02-28T19:02:15.656Z,100237.05
2019-02-28T19:07:35.001Z,100247.13
2019-02-28T19:10:05.663Z,100256.21
2019-02-28T19:12:35.949Z,100257.31
2019-02-28T19:15:06.394Z,100251.13
2019-02-28T19:17:36.589Z,100248.65
2019-02-28T19:20:07.319Z,100253.63
2019-02-28T19:22:37.417Z,100253.02
2019-02-28T19:25:07.906Z,100258.25
2019-02-28T19:27:38.167Z,100255.64
2019-02-28T19:30:10.361Z,100256.77
2019-02-28T19:32:41.129Z,100265.21
2019-02-28T19:35:11.367Z,100275.73
2019-02-28T19:37:55.904Z,100281.95
2019-02-28T19:43:18.725Z,100283.52
2019-02-28T19:45:48.943Z,100288.56
2019-02-28T19:48:21.190Z,100294.34
2019-02-28T19:50:53.389Z,100301.08
2019-02-28T19:53:23.981Z,100303.22
2019-02-28T19:55:54.078Z,100312.05
2019-02-28T19:58:24.245Z,100311.71
2019-02-28T20:00:54.471Z,100313.80
2019-02-28T20:03:24.581Z,100309.60
2019-02-28T20:05:54.708Z,100321.50
2019-02-28T20:08:47.766Z,100327.34
2019-02-28T20:11:18.031Z,100332.92
2019-02-28T20:13:48.540Z,100330.80
2019-02-28T20:16:19.067Z,100333.25
2019-02-28T20:18:50.466Z,100332.94
2019-02-28T20:21:40.533Z,100332.55
2019-02-28T20:24:10.867Z,100345.12
2019-02-28T20:29:55.091Z,100354.81
2019-02-28T20:32:40.487Z,100362.91
2019-02-28T20:35:12.396Z,100371.66
2019-02-28T20:37:42.710Z,100364.64
2019-02-28T20:40:14.181Z,100359.47
2019-02-28T20:42:44.334Z,100367.09
2019-02-28T20:45:14.518Z,100376.41
2019-02-28T20:47:46.391Z,100372.97
2019-02-28T20:50:37.597Z,100386.36
2019-02-28T20:53:08.761Z,100382.78
2019-02-28T21:01:12.717Z,100396.97
2019-02-28T21:06:24.936Z,100408.30
2019-02-28T21:08:55.130Z,100410.70
2019-02-28T21:11:25.258Z,100403.67
2019-02-28T21:13:55.467Z,100405.45
2019-02-28T21:16:37.149Z,100317.80
2019-02-28T21:19:07.377Z,100402.67
2019-02-28T21:21:37.500Z,100402.20
2019-02-28T21:24:07.659Z,100403.66
2019-02-28T21:26:37.871Z,100405.91
2019-02-28T21:29:07.987Z,100402.19
2019-02-28T21:31:38.369Z,100404.99
2019-02-28T21:43:17.845Z,100398.13
2019-02-28T21:45:48.272Z,100397.02
2019-02-28T21:48:38.566Z,100403.81
2019-02-28T21:51:30.977Z,100409.28
2019-02-28T21:54:01.330Z,100403.45
2019-02-28T22:02:16.058Z,100409.45
2019-02-28T22:04:46.186Z,100410.48
2019-02-28T22:07:16.411Z,100412.32
2019-02-28T22:09:46.485Z,100431.77
2019-02-28T22:12:16.614Z,100426.27
2019-02-28T22:14:46.704Z,100425.22
2019-02-28T22:17:16.846Z,100422.80
2019-02-28T22:19:46.955Z,100426.94
2019-02-28T22:22:36.003Z,100436.24
2019-02-28T22:25:06.685Z,100440.78
2019-02-28T22:27:36.796Z,100436.70
2019-02-28T22:30:19.149Z,100449.34
2019-02-28T22:32:52.870Z,100448.76
2019-02-28T22:35:38.691Z,100452.31
2019-02-28T22:38:08.865Z,100448.66
2019-02-28T22:40:58.159Z,100457.80
2019-02-28T22:43:28.262Z,100451.75
2019-02-28T22:45:58.363Z,100447.59
2019-02-28T22:48:28.499Z,100443.08
2019-02-28T22:50:58.641Z,100443.88
2019-02-28T22:53:28.754Z,100447.39
2019-02-28T22:55:58.897Z,100449.12
2019-02-28T22:58:28.988Z,100455.78
2019-02-28T23:01:38.763Z,100450.49
2019-02-28T23:04:08.886Z,100443.84
2019-02-28T23:06:38.989Z,100441.55
2019-02-28T23:09:09.210Z,100442.46
2019-02-28T23:11:39.399Z,100444.19
2019-02-28T23:14:09.571Z,100447.23
2019-02-28T23:16:39.725Z,100446.68
2019-02-28T23:21:51.504Z,100451.80
2019-02-28T23:24:21.598Z,100458.06
2019-02-28T23:27:11.498Z,100459.79
2019-02-28T23:29:45.006Z,100457.14
2019-02-28T23:32:36.130Z,100463.30
2019-02-28T23:35:08.896Z,100463.65
2019-02-28T23:43:02.553Z,100465.53
2019-02-28T23:45:32.671Z,100462.64
2019-02-28T23:48:02.785Z,100457.00
2019-02-28T23:50:32.876Z,100455.38
2019-02-28T23:53:02.965Z,100456.89
2019-02-28T23:55:33.057Z,100456.59
2019-02-28T23:58:03.173Z,100460.05
